CheckWX is a tool to help pilots better visualize weather data.  It is not intended as a substitute for an official pre-flight weather briefing.

12:26:20 UTC

2I0 METAR
Madisonville Regional Airport
Madisonville, Kentucky, USA
Current

31 mins ago

K2I0 201155Z AUTO 32009G15KT 7SM -RA OVC010 06/06 A2967 RMK AO2 P0002 60025 70133 T00630061 10076 20062
Observed
Apr-20 @ 11:55 UTC
Wind
  • 320° at 9 KTS
  • Gusting to 15 KTS
Visibility
7 SM
Flight Rules
MVFR
Conditions
Light Rain
Cloud Levels
  • Overcast at 1,000' AGL
Temperature
C / 43°F
Dewpoint
C / 43°F
Humidity
100%
Altimeter
29.67" Hg
Pressure
1004.72 hPa
Current Rain
0.02"
24 Hour Rain
1.33"
Previous

51 mins ago

K2I0 201135Z AUTO 33011G15KT 7SM -RA BKN010 OVC013 06/06 A2967 RMK AO2 P0002 T00630062
Observed
Apr-20 @ 11:35 UTC
Wind
  • 330° at 11 KTS
  • Gusting to 15 KTS
Visibility
7 SM
Flight Rules
MVFR
Conditions
Light Rain
Cloud Levels
  • Broken at 1,000' AGL
  • Overcast at 1,300' AGL
Temperature
C / 43°F
Dewpoint
C / 43°F
Humidity
100%
Altimeter
29.67" Hg
Pressure
1004.72 hPa
Current Rain
0.02"
Previous

1 hour ago

K2I0 201115Z AUTO 33008G15KT 5SM -RA OVC010 06/06 A2966 RMK AO2 P0001 T00620058
Observed
Apr-20 @ 11:15 UTC
Wind
  • 330° at 8 KTS
  • Gusting to 15 KTS
Visibility
5 SM
Flight Rules
MVFR
Conditions
Light Rain
Cloud Levels
  • Overcast at 1,000' AGL
Temperature
C / 43°F
Dewpoint
C / 43°F
Humidity
100%
Altimeter
29.66" Hg
Pressure
1004.42 hPa
Current Rain
0.01"